Time;durP1;ratioP1;P1;durP2;ratioP2;P2;SDS_P1;SDS_P2;PMS_P1;PMS_P2;Temp;Humidity;BMP_temperature;BMP_pressure;BME280_temperature;BME280_humidity;BME280_pressure;Samples;Min_cycle;Max_cycle;Signal;HPM_P1;HPM_P2
2022/01/12 00:04:40;;;;;;;47.50;31.90;;;23.30;50.00;;;;;;215634;1293;22603;-54
2022/01/12 00:09:56;;;;;;;52.80;32.50;;;23.20;50.30;;;;;;215426;1293;22778;-57
2022/01/12 00:15:03;;;;;;;50.50;31.90;;;23.20;50.70;;;;;;215113;1293;22656;-56
2022/01/12 00:20:07;;;;;;;51.60;32.50;;;23.00;50.10;;;;;;215316;1293;23962;-57
2022/01/12 00:25:45;;;;;;;49.30;33.10;;;22.90;50.50;;;;;;215197;1293;22618;-55
2022/01/12 00:35:59;;;;;;;49.70;32.40;;;22.80;50.00;;;;;;215394;1293;25646;-56
2022/01/12 00:41:03;;;;;;;48.40;31.30;;;22.60;50.40;;;;;;215336;1293;22589;-57
2022/01/12 00:46:08;;;;;;;48.00;32.30;;;22.50;50.60;;;;;;215631;1293;23963;-57
2022/01/12 00:51:14;;;;;;;46.80;32.80;;;22.40;50.30;;;;;;215580;1293;22569;-56
2022/01/12 00:56:18;;;;;;;46.90;31.50;;;22.40;50.10;;;;;;215552;1293;24285;-55
2022/01/12 01:01:24;;;;;;;46.80;31.70;;;22.30;50.00;;;;;;215547;1293;26598;-55
2022/01/12 01:06:27;;;;;;;48.30;30.90;;;22.30;49.50;;;;;;215510;1293;26647;-55
2022/01/12 01:11:33;;;;;;;43.40;29.00;;;22.20;50.00;;;;;;215473;1293;24261;-57
2022/01/12 01:27:18;;;;;;;40.80;27.00;;;23.20;48.40;;;;;;215306;1293;24941;-56
2022/01/12 01:32:23;;;;;;;43.80;28.70;;;23.60;47.20;;;;;;215501;1293;22710;-56
2022/01/12 01:37:27;;;;;;;40.90;27.20;;;23.80;46.90;;;;;;215487;1293;24296;-56
2022/01/12 01:42:43;;;;;;;40.80;28.00;;;23.90;46.20;;;;;;215519;1293;22661;-56
2022/01/12 01:53:21;;;;;;;44.50;27.70;;;24.20;45.60;;;;;;215373;1293;22584;-58
2022/01/12 01:58:24;;;;;;;40.80;27.60;;;24.20;45.40;;;;;;215550;1293;22598;-56
2022/01/12 02:03:29;;;;;;;39.10;27.10;;;24.20;45.20;;;;;;215481;1292;25016;-57
2022/01/12 02:08:36;;;;;;;40.70;27.80;;;24.30;45.10;;;;;;215435;1292;22591;-58
2022/01/12 02:14:04;;;;;;;39.30;26.70;;;24.30;44.90;;;;;;215427;1293;22957;-58
2022/01/12 02:19:19;;;;;;;43.20;27.00;;;24.30;45.10;;;;;;215249;1293;22754;-57
2022/01/12 02:40:13;;;;;;;39.00;26.40;;;24.10;44.90;;;;;;215391;1292;25350;-55
2022/01/12 02:50:57;;;;;;;39.60;26.30;;;23.90;45.00;;;;;;215491;1293;23933;-56
2022/01/12 02:56:00;;;;;;;34.80;24.90;;;23.80;45.40;;;;;;215486;1293;25756;-57
2022/01/12 03:06:36;;;;;;;35.70;23.60;;;23.90;45.00;;;;;;215532;1293;22566;-57
2022/01/12 03:11:40;;;;;;;36.40;24.50;;;23.90;45.30;;;;;;215692;1293;24395;-55
2022/01/12 03:16:51;;;;;;;35.60;24.40;;;24.00;45.00;;;;;;215341;1293;22612;-57
2022/01/12 03:21:59;;;;;;;38.10;24.90;;;24.00;44.60;;;;;;215613;1293;22595;-58
2022/01/12 03:27:05;;;;;;;36.10;25.30;;;24.10;44.50;;;;;;215808;1293;22551;-56
2022/01/12 03:32:11;;;;;;;35.30;25.80;;;24.10;44.40;;;;;;215615;1293;24279;-56
2022/01/12 03:37:39;;;;;;;34.30;25.10;;;24.10;44.50;;;;;;215512;1293;22622;-56
2022/01/12 03:42:58;;;;;;;34.10;23.70;;;24.10;44.50;;;;;;215723;1293;24373;-56
2022/01/12 03:48:19;;;;;;;37.40;23.80;;;24.00;44.40;;;;;;215410;1293;26458;-55
2022/01/12 03:53:40;;;;;;;;;;;24.00;44.20;;;;;;215685;1293;23960;-54
2022/01/12 03:59:03;;;;;;;35.60;24.50;;;24.00;44.60;;;;;;215649;1293;22569;-57
2022/01/12 04:04:33;;;;;;;38.10;25.80;;;24.00;44.20;;;;;;215765;1293;25366;-57
2022/01/12 04:09:55;;;;;;;33.40;24.50;;;23.90;44.10;;;;;;215378;1293;22567;-55
2022/01/12 04:14:59;;;;;;;33.20;23.90;;;24.00;44.10;;;;;;215351;1293;25246;-57
2022/01/12 04:20:04;;;;;;;34.90;24.20;;;24.00;44.40;;;;;;215227;1293;24674;-56
2022/01/12 04:25:07;;;;;;;33.10;23.00;;;24.00;43.90;;;;;;215357;1293;24294;-55
2022/01/12 04:30:11;;;;;;;31.20;21.90;;;24.10;43.70;;;;;;215310;1293;22572;-56
2022/01/12 04:35:16;;;;;;;34.20;23.80;;;24.20;43.60;;;;;;215344;1293;22576;-55
2022/01/12 04:40:20;;;;;;;33.60;23.80;;;24.10;43.50;;;;;;215340;1293;24332;-57
2022/01/12 04:50:31;;;;;;;33.90;23.10;;;24.10;43.50;;;;;;215353;1293;25350;-55
2022/01/12 04:55:35;;;;;;;33.30;22.40;;;24.10;43.80;;;;;;215463;1293;22622;-59
2022/01/12 05:00:39;;;;;;;32.50;23.80;;;24.00;43.80;;;;;;215498;1293;23102;-58
2022/01/12 05:16:46;;;;;;;33.00;23.70;;;23.90;43.60;;;;;;215378;1293;24414;-57
2022/01/12 05:21:50;;;;;;;35.00;24.10;;;24.00;43.50;;;;;;215566;1293;23879;-58
2022/01/12 05:26:55;;;;;;;33.70;24.60;;;24.10;43.90;;;;;;215492;1293;25475;-56
2022/01/12 05:31:59;;;;;;;32.90;23.70;;;24.20;43.40;;;;;;215368;1294;22550;-56
2022/01/12 05:37:03;;;;;;;30.00;22.90;;;24.20;43.20;;;;;;215250;1296;26716;-57
2022/01/12 05:42:12;;;;;;;32.90;24.00;;;24.20;43.30;;;;;;215421;1295;25503;-56
2022/01/12 05:47:33;;;;;;;31.00;23.10;;;24.20;43.40;;;;;;215309;1293;25298;-57
2022/01/12 05:52:37;;;;;;;32.50;22.60;;;24.20;43.20;;;;;;215391;1293;25044;-56
2022/01/12 05:57:42;;;;;;;34.20;22.70;;;24.20;43.30;;;;;;215485;1293;224674;-56
2022/01/12 06:02:46;;;;;;;33.40;25.00;;;24.10;43.30;;;;;;215422;1293;22594;-56
2022/01/12 06:07:52;;;;;;;32.30;23.50;;;24.00;43.50;;;;;;215679;1294;22673;-58
2022/01/12 06:12:56;;;;;;;31.70;23.10;;;24.00;43.60;;;;;;215424;1294;22922;-58
2022/01/12 06:18:01;;;;;;;32.70;23.10;;;24.00;43.50;;;;;;215253;1297;22667;-56
2022/01/12 06:23:05;;;;;;;31.60;24.10;;;24.00;43.40;;;;;;215336;1297;25352;-56
2022/01/12 06:33:32;;;;;;;33.40;23.30;;;24.10;43.30;;;;;;215252;1297;22756;-57
2022/01/12 06:38:36;;;;;;;32.30;22.60;;;24.20;43.00;;;;;;215420;1293;22598;-56
2022/01/12 06:43:40;;;;;;;31.90;22.70;;;24.20;43.20;;;;;;215486;1293;25325;-56
2022/01/12 06:48:45;;;;;;;32.30;24.00;;;24.30;42.70;;;;;;215352;1296;22605;-57
2022/01/12 06:53:50;;;;;;;32.50;23.40;;;24.20;42.90;;;;;;215302;1293;22783;-55
2022/01/12 06:59:00;;;;;;;;;;;24.20;43.20;;;;;;215172;1297;22574;-58
2022/01/12 07:04:06;;;;;;;37.30;24.60;;;24.20;43.30;;;;;;215264;1293;22611;-57
2022/01/12 07:09:10;;;;;;;34.00;22.70;;;24.20;43.50;;;;;;215307;1297;27684;-58
2022/01/12 07:14:33;;;;;;;36.20;23.00;;;24.10;44.40;;;;;;215140;1297;22648;-58
2022/01/12 07:19:37;;;;;;;39.00;24.10;;;24.00;45.50;;;;;;215245;1296;22570;-58
2022/01/12 07:24:41;;;;;;;37.60;24.60;;;24.00;45.90;;;;;;215144;1296;22580;-59
2022/01/12 07:29:45;;;;;;;37.20;24.20;;;23.90;45.60;;;;;;215151;1293;22571;-58
2022/01/12 07:34:50;;;;;;;35.60;23.90;;;23.80;45.60;;;;;;215538;1297;22566;-57
2022/01/12 07:39:54;;;;;;;43.80;22.80;;;23.80;46.00;;;;;;215222;1296;22580;-57
2022/01/12 07:45:00;;;;;;;40.40;24.20;;;23.90;46.80;;;;;;215190;1297;24326;-57
2022/01/12 07:50:07;;;;;;;33.50;22.30;;;24.00;46.90;;;;;;215211;1293;22609;-57
2022/01/12 07:55:11;;;;;;;36.00;22.50;;;24.00;46.40;;;;;;215220;1293;24361;-58
2022/01/12 08:00:15;;;;;;;35.90;23.10;;;24.10;46.60;;;;;;215080;1297;22792;-60
2022/01/12 08:05:19;;;;;;;35.90;23.70;;;24.10;46.70;;;;;;215235;1294;22671;-55
2022/01/12 08:10:23;;;;;;;39.70;23.90;;;24.10;46.40;;;;;;215402;1293;24294;-52
2022/01/12 08:15:27;;;;;;;37.70;23.70;;;24.10;46.30;;;;;;215044;1293;22680;-56
2022/01/12 08:20:31;;;;;;;39.60;24.90;;;24.10;46.30;;;;;;215510;1292;22619;-57
2022/01/12 08:25:41;;;;;;;34.70;24.50;;;24.00;46.50;;;;;;215213;1293;22569;-56
2022/01/12 08:30:44;;;;;;;39.40;24.60;;;24.00;46.10;;;;;;215261;1293;22934;-55
2022/01/12 08:35:48;;;;;;;35.70;24.40;;;23.90;46.10;;;;;;215697;1296;24795;-55
2022/01/12 08:40:56;;;;;;;35.90;23.80;;;23.90;46.00;;;;;;215361;1296;22625;-54
2022/01/12 08:46:03;;;;;;;38.00;24.90;;;23.90;45.90;;;;;;215595;1293;25793;-52
2022/01/12 08:51:15;;;;;;;37.30;24.40;;;23.90;45.80;;;;;;215495;1294;23092;-56
2022/01/12 08:56:19;;;;;;;33.80;24.20;;;23.90;45.80;;;;;;215632;1293;22595;-60
2022/01/12 09:01:26;;;;;;;37.40;24.80;;;23.90;46.20;;;;;;215316;1293;22584;-62
2022/01/12 09:06:33;;;;;;;34.80;24.40;;;23.90;45.60;;;;;;215163;1293;22656;-61
2022/01/12 09:11:36;;;;;;;32.10;22.80;;;23.90;45.70;;;;;;215216;1293;23038;-62
2022/01/12 09:16:40;;;;;;;36.90;23.70;;;24.00;45.30;;;;;;215109;1293;26000;-59
2022/01/12 09:21:44;;;;;;;35.50;24.10;;;23.90;45.20;;;;;;215145;1293;24377;-60
2022/01/12 09:26:49;;;;;;;34.10;23.50;;;24.00;45.10;;;;;;215526;1293;24249;-58
2022/01/12 09:31:53;;;;;;;32.30;22.60;;;24.00;45.00;;;;;;215355;1293;22729;-60
2022/01/12 09:36:56;;;;;;;32.40;23.50;;;24.00;45.30;;;;;;215566;1294;25338;-60
2022/01/12 09:42:03;;;;;;;33.80;24.10;;;24.00;45.00;;;;;;215097;1293;22585;-57
2022/01/12 09:47:09;;;;;;;33.90;23.80;;;24.00;44.90;;;;;;215218;1293;26627;-58
2022/01/12 09:52:14;;;;;;;32.30;23.80;;;23.90;45.10;;;;;;215447;1293;22773;-58
2022/01/12 09:57:19;;;;;;;33.50;23.30;;;24.00;45.00;;;;;;216142;1293;24447;-58
2022/01/12 10:02:23;;;;;;;31.30;22.80;;;23.90;45.00;;;;;;215386;1296;22579;-55
2022/01/12 10:07:31;;;;;;;38.10;23.40;;;23.90;45.10;;;;;;215309;1293;25600;-58
2022/01/12 10:12:39;;;;;;;37.20;24.10;;;24.00;45.20;;;;;;215281;1293;25365;-54
2022/01/12 10:17:47;;;;;;;33.60;22.10;;;24.00;45.10;;;;;;216332;1293;22579;-57
2022/01/12 10:23:00;;;;;;;32.80;22.90;;;24.00;45.40;;;;;;215376;1293;24584;-53
2022/01/12 10:28:25;;;;;;;31.30;22.80;;;24.00;45.30;;;;;;214595;1293;25526;-55
2022/01/12 10:33:33;;;;;;;32.80;23.10;;;24.00;45.20;;;;;;215658;1293;22594;-58
2022/01/12 10:38:43;;;;;;;35.40;23.70;;;24.00;45.20;;;;;;215726;1293;22606;-58
2022/01/12 10:43:49;;;;;;;32.70;23.00;;;24.10;45.30;;;;;;215466;1293;23942;-59
2022/01/12 10:48:55;;;;;;;32.60;23.00;;;24.20;45.50;;;;;;215290;1293;22579;-60
2022/01/12 10:54:04;;;;;;;31.30;23.10;;;24.30;45.10;;;;;;215290;1293;22687;-58
2022/01/12 10:59:18;;;;;;;31.30;22.80;;;24.40;44.90;;;;;;215365;1293;22597;-58
2022/01/12 11:04:22;;;;;;;31.30;22.40;;;24.40;44.80;;;;;;215273;1292;22579;-58
2022/01/12 11:09:29;;;;;;;31.00;22.50;;;24.50;44.70;;;;;;215404;1293;22595;-60
2022/01/12 11:14:33;;;;;;;33.90;22.50;;;24.40;44.80;;;;;;214561;1293;22698;-57
2022/01/12 11:19:40;;;;;;;33.90;22.60;;;24.30;45.10;;;;;;214272;1293;22617;-56
2022/01/12 11:24:46;;;;;;;29.00;22.20;;;24.20;45.10;;;;;;214797;1293;22601;-55
2022/01/12 11:29:50;;;;;;;32.90;21.70;;;24.10;45.40;;;;;;215454;1293;25550;-56
2022/01/12 11:35:03;;;;;;;31.70;21.80;;;23.90;45.60;;;;;;215066;1293;23102;-56
2022/01/12 11:40:12;;;;;;;31.40;22.00;;;23.80;45.80;;;;;;215102;1293;22857;-59
2022/01/12 11:45:20;;;;;;;31.40;22.30;;;23.60;46.00;;;;;;215279;1293;24285;-55
2022/01/12 11:50:27;;;;;;;29.60;22.50;;;23.50;46.10;;;;;;215268;1296;22707;-55
2022/01/12 11:55:40;;;;;;;29.10;21.50;;;23.40;46.60;;;;;;215357;1293;22749;-53
2022/01/12 12:00:44;;;;;;;30.50;22.60;;;23.30;46.40;;;;;;214561;1293;22604;-51
2022/01/12 12:05:54;;;;;;;30.00;22.80;;;23.20;46.80;;;;;;215125;1293;24828;-57
2022/01/12 12:10:58;;;;;;;30.60;22.20;;;23.20;46.90;;;;;;215160;1293;22758;-57
2022/01/12 12:16:02;;;;;;;27.50;20.50;;;23.10;47.10;;;;;;215239;1293;24308;-57
2022/01/12 12:21:09;;;;;;;29.30;21.90;;;23.00;47.10;;;;;;215163;1293;24085;-57
2022/01/12 12:26:21;;;;;;;;;;;22.90;47.20;;;;;;215361;1293;25412;-60
2022/01/12 12:31:47;;;;;;;28.40;22.00;;;22.80;47.40;;;;;;215215;1293;25723;-59
2022/01/12 12:37:06;;;;;;;27.40;20.50;;;22.80;47.50;;;;;;215331;1293;25311;-59
2022/01/12 12:42:20;;;;;;;27.30;20.30;;;22.80;47.40;;;;;;215082;1293;22574;-58
2022/01/12 12:47:26;;;;;;;28.90;20.10;;;22.80;47.20;;;;;;215737;1293;22574;-57
2022/01/12 12:52:35;;;;;;;28.10;20.80;;;22.80;47.40;;;;;;215603;1293;22576;-57
2022/01/12 12:57:56;;;;;;;28.80;20.20;;;22.70;47.30;;;;;;215450;1293;22707;-53
2022/01/12 13:03:02;;;;;;;28.50;19.70;;;22.70;47.60;;;;;;215450;1293;22678;-57
2022/01/12 13:08:07;;;;;;;28.20;19.80;;;22.60;47.60;;;;;;215398;1293;22869;-52
2022/01/12 13:13:11;;;;;;;28.00;18.40;;;22.50;47.60;;;;;;215401;1293;22853;-52
2022/01/12 13:18:20;;;;;;;24.50;17.00;;;22.80;47.50;;;;;;215607;1293;22588;-59
2022/01/12 13:23:26;;;;;;;24.90;17.10;;;23.10;46.30;;;;;;215059;1292;22654;-56
2022/01/12 13:28:30;;;;;;;25.50;17.20;;;23.50;45.70;;;;;;215406;1293;25505;-54
2022/01/12 13:33:37;;;;;;;24.40;16.90;;;23.60;45.20;;;;;;215458;1293;22643;-52
2022/01/12 13:38:43;;;;;;;25.90;17.10;;;23.80;45.00;;;;;;215131;1293;24410;-50
2022/01/12 13:43:59;;;;;;;24.80;16.90;;;23.80;45.30;;;;;;214730;1293;22649;-56
2022/01/12 13:54:20;;;;;;;22.60;16.50;;;23.90;44.80;;;;;;215343;1293;22574;-57
2022/01/12 13:59:27;;;;;;;22.80;16.60;;;23.90;44.80;;;;;;215433;1293;22696;-56
2022/01/12 14:04:40;;;;;;;22.50;16.40;;;23.90;44.80;;;;;;215451;1293;25362;-55
2022/01/12 14:09:58;;;;;;;23.00;16.90;;;23.90;45.20;;;;;;215393;1292;22584;-59
2022/01/12 14:15:07;;;;;;;20.40;15.50;;;23.90;44.80;;;;;;215402;1293;25280;-59
2022/01/12 14:20:21;;;;;;;22.70;15.50;;;23.90;44.80;;;;;;215590;1293;22763;-59
2022/01/12 14:25:39;;;;;;;21.10;14.90;;;23.90;45.10;;;;;;215515;1293;23309;-56
2022/01/12 14:30:46;;;;;;;20.20;15.30;;;23.90;44.80;;;;;;215747;1293;24381;-59
2022/01/12 14:35:51;;;;;;;21.00;15.30;;;23.90;45.10;;;;;;215646;1293;24248;-62
2022/01/12 14:40:54;;;;;;;19.60;14.50;;;23.80;44.80;;;;;;215600;1293;24266;-60
2022/01/12 14:45:58;;;;;;;20.70;14.60;;;23.90;44.80;;;;;;215704;1293;22638;-59
2022/01/12 14:51:03;;;;;;;21.60;15.10;;;23.90;44.80;;;;;;215404;1293;24005;-59
2022/01/12 14:56:14;;;;;;;18.60;13.70;;;23.90;45.20;;;;;;215424;1292;24681;-60
2022/01/12 15:01:18;;;;;;;18.30;13.70;;;23.80;45.00;;;;;;215560;1293;22751;-55
2022/01/12 15:06:22;;;;;;;18.60;13.70;;;23.90;44.80;;;;;;215271;1293;25451;-53
2022/01/12 15:11:26;;;;;;;19.90;13.50;;;23.80;45.10;;;;;;215152;1293;25466;-52
2022/01/12 15:16:32;;;;;;;19.70;13.60;;;23.80;44.60;;;;;;215802;1293;23809;-53
2022/01/12 15:21:36;;;;;;;18.10;13.50;;;23.80;44.50;;;;;;215678;1293;22586;-54
2022/01/12 15:26:40;;;;;;;18.30;13.60;;;23.80;44.40;;;;;;215323;1293;25362;-51
2022/01/12 15:32:05;;;;;;;17.70;12.60;;;23.80;44.80;;;;;;215425;1293;23169;-55
2022/01/12 15:37:09;;;;;;;16.80;12.50;;;23.80;44.20;;;;;;215527;1293;24263;-51
2022/01/12 15:42:12;;;;;;;19.40;13.40;;;23.90;44.10;;;;;;215755;1293;22570;-53
2022/01/12 15:47:16;;;;;;;16.50;12.70;;;23.90;44.10;;;;;;215335;1293;25906;-51
2022/01/12 15:52:22;;;;;;;19.70;13.40;;;23.90;44.00;;;;;;215493;1293;25532;-52
2022/01/12 15:57:27;;;;;;;19.90;12.60;;;23.90;44.00;;;;;;215814;1293;22615;-56
2022/01/12 16:02:31;;;;;;;16.90;12.70;;;23.90;43.90;;;;;;215766;1293;24287;-53
2022/01/12 16:07:46;;;;;;;18.10;12.90;;;23.90;44.00;;;;;;215722;1292;25362;-55
2022/01/12 16:12:50;;;;;;;19.10;12.70;;;23.90;43.50;;;;;;215585;1293;22610;-52
2022/01/12 16:18:14;;;;;;;16.60;12.50;;;23.80;43.90;;;;;;215459;1293;22581;-54
2022/01/12 16:23:22;;;;;;;16.50;12.40;;;23.80;43.90;;;;;;215621;1293;22569;-51
2022/01/12 16:28:30;;;;;;;17.10;12.30;;;23.80;43.80;;;;;;215255;1293;24590;-51
2022/01/12 16:33:37;;;;;;;15.80;12.00;;;23.80;44.10;;;;;;215392;1293;22599;-52
2022/01/12 16:38:41;;;;;;;16.20;12.80;;;23.80;43.80;;;;;;215471;1293;22579;-54
2022/01/12 16:43:45;;;;;;;18.80;12.80;;;23.80;43.80;;;;;;215418;1293;22629;-54
2022/01/12 16:48:51;;;;;;;16.30;11.60;;;23.80;43.70;;;;;;215327;1293;22580;-52
2022/01/12 16:54:15;;;;;;;16.10;12.00;;;23.80;43.70;;;;;;215392;1293;22595;-53
2022/01/12 16:59:18;;;;;;;17.70;12.40;;;23.80;43.60;;;;;;215936;1293;22754;-53
2022/01/12 17:04:24;;;;;;;16.40;12.50;;;23.80;43.50;;;;;;216057;1293;23022;-55
2022/01/12 17:09:46;;;;;;;17.80;11.40;;;23.80;43.50;;;;;;215713;1293;26908;-52
2022/01/12 17:15:19;;;;;;;17.10;12.20;;;23.80;43.50;;;;;;215386;1293;22567;-56
2022/01/12 17:20:33;;;;;;;15.20;11.20;;;23.80;43.40;;;;;;215655;1293;22575;-53
2022/01/12 17:25:42;;;;;;;;;;;23.90;43.30;;;;;;215301;1293;24444;-52
2022/01/12 17:30:52;;;;;;;14.90;11.20;;;23.90;43.20;;;;;;215555;1293;22687;-51
2022/01/12 17:36:20;;;;;;;16.10;11.40;;;23.90;43.40;;;;;;215332;1293;24326;-53
2022/01/12 17:41:24;;;;;;;16.90;12.20;;;23.90;43.20;;;;;;215607;1293;25300;-52
2022/01/12 17:46:28;;;;;;;16.50;11.20;;;23.90;43.10;;;;;;215402;1293;22890;-54
2022/01/12 17:51:47;;;;;;;18.50;12.10;;;23.90;43.40;;;;;;215483;1293;25685;-52
2022/01/12 17:56:58;;;;;;;15.90;11.40;;;23.90;43.10;;;;;;213791;1293;3197557;-51
2022/01/12 18:02:07;;;;;;;16.90;12.10;;;23.90;43.10;;;;;;215774;1293;22572;-53
2022/01/12 18:07:32;;;;;;;18.80;12.50;;;23.90;43.10;;;;;;215663;1293;25289;-53
2022/01/12 18:12:49;;;;;;;16.10;12.00;;;23.80;43.10;;;;;;215760;1293;22580;-52
2022/01/12 18:18:00;;;;;;;16.20;11.50;;;23.80;43.10;;;;;;215385;1293;22752;-51
2022/01/12 18:23:06;;;;;;;16.60;12.00;;;23.80;43.10;;;;;;215662;1293;22571;-56
2022/01/12 18:28:17;;;;;;;16.00;11.50;;;23.80;43.10;;;;;;215541;1293;22596;-54
2022/01/12 18:33:26;;;;;;;17.60;12.30;;;23.80;43.00;;;;;;215712;1293;22608;-54
2022/01/12 18:38:37;;;;;;;16.30;11.70;;;23.80;43.00;;;;;;215472;1293;24344;-53
2022/01/12 18:44:08;;;;;;;17.30;12.60;;;23.80;43.10;;;;;;215585;1293;22638;-51
2022/01/12 18:49:17;;;;;;;17.50;12.10;;;23.80;43.00;;;;;;215836;1293;22601;-53
2022/01/12 18:54:29;;;;;;;17.30;12.00;;;23.80;43.00;;;;;;215412;1292;25369;-51
2022/01/12 18:59:33;;;;;;;20.60;11.80;;;23.80;43.20;;;;;;215845;1293;24405;-52
2022/01/12 19:04:45;;;;;;;18.70;12.40;;;23.80;42.90;;;;;;215896;1293;25346;-56
2022/01/12 19:09:57;;;;;;;19.90;12.70;;;23.80;43.30;;;;;;215865;1293;22609;-52
2022/01/12 19:15:27;;;;;;;14.90;10.90;;;23.80;42.80;;;;;;215328;1293;22644;-53
2022/01/12 19:20:59;;;;;;;16.90;11.50;;;23.80;42.80;;;;;;215483;1293;24460;-54
2022/01/12 19:26:03;;;;;;;16.60;11.40;;;23.80;42.70;;;;;;215793;1293;26648;-55
2022/01/12 19:31:14;;;;;;;17.10;11.90;;;23.90;42.60;;;;;;215401;1293;25637;-53
2022/01/12 19:36:25;;;;;;;17.40;11.60;;;23.90;42.70;;;;;;215612;1293;24316;-55
2022/01/12 19:41:37;;;;;;;17.10;11.80;;;23.90;42.60;;;;;;215417;1293;22764;-52
2022/01/12 19:46:47;;;;;;;14.90;10.80;;;23.90;42.50;;;;;;215546;1293;25441;-52
2022/01/12 19:52:05;;;;;;;18.00;11.40;;;23.80;42.40;;;;;;215554;1293;23235;-54
2022/01/12 19:57:42;;;;;;;19.30;10.70;;;23.80;42.50;;;;;;216222;1292;25299;-55
2022/01/12 20:03:22;;;;;;;17.30;11.20;;;23.90;42.40;;;;;;215168;1293;26947;-53
2022/01/12 20:09:30;;;;;;;32.80;12.10;;;23.90;42.50;;;;;;215410;1293;22757;-55
2022/01/12 20:14:53;;;;;;;25.60;10.80;;;23.90;43.80;;;;;;215212;1293;22751;-53
2022/01/12 20:26:53;;;;;;;19.30;10.90;;;24.00;44.10;;;;;;214874;1293;26593;-57
2022/01/12 20:32:08;;;;;;;22.60;11.30;;;24.00;45.10;;;;;;215370;1293;24207;-54
2022/01/12 20:37:15;;;;;;;27.10;10.80;;;23.90;45.60;;;;;;215585;1293;22745;-55
2022/01/12 20:42:24;;;;;;;21.80;11.20;;;23.90;45.90;;;;;;215393;1293;25502;-50
2022/01/12 20:47:30;;;;;;;22.70;10.90;;;24.00;45.50;;;;;;215476;1293;24510;-53
2022/01/12 20:52:38;;;;;;;21.50;10.20;;;23.90;45.80;;;;;;215486;1293;25556;-63
2022/01/12 20:57:55;;;;;;;19.40;11.10;;;23.90;45.90;;;;;;215380;1293;23937;-63
2022/01/12 21:03:04;;;;;;;23.00;12.10;;;23.90;45.80;;;;;;215291;1293;22573;-59
2022/01/12 21:08:08;;;;;;;22.00;10.80;;;23.90;45.60;;;;;;215158;1293;24348;-60
2022/01/12 21:13:14;;;;;;;19.80;10.90;;;23.70;45.60;;;;;;214952;1296;23098;-59
2022/01/12 21:18:20;;;;;;;26.50;11.10;;;23.70;45.80;;;;;;215023;1293;22572;-59
2022/01/12 21:23:25;;;;;;;19.50;10.80;;;23.70;45.80;;;;;;215217;1292;24315;-58
2022/01/12 21:28:30;;;;;;;18.50;9.90;;;23.80;45.80;;;;;;215249;1293;25595;-59
2022/01/12 21:33:34;;;;;;;19.60;10.50;;;23.80;45.60;;;;;;215090;1293;24295;-60
2022/01/12 21:38:58;;;;;;;17.10;10.40;;;23.90;45.50;;;;;;215259;1293;24285;-58
2022/01/12 21:44:02;;;;;;;17.10;9.90;;;23.90;45.50;;;;;;215289;1293;22680;-59
2022/01/12 21:49:07;;;;;;;19.40;9.80;;;23.90;45.70;;;;;;215170;1293;22594;-59
2022/01/12 21:54:16;;;;;;;17.50;9.60;;;24.00;45.70;;;;;;215022;1296;22599;-59
2022/01/12 21:59:22;;;;;;;14.10;9.50;;;24.00;47.50;;;;;;215062;1293;22771;-59
2022/01/12 22:04:26;;;;;;;13.70;9.50;;;24.00;47.30;;;;;;215232;1293;25377;-62
2022/01/12 22:09:30;;;;;;;13.70;9.30;;;23.90;47.20;;;;;;215112;1293;25260;-60
2022/01/12 22:14:34;;;;;;;15.30;9.50;;;23.90;47.00;;;;;;214961;1296;22639;-61
2022/01/12 22:19:39;;;;;;;15.40;8.50;;;23.80;46.90;;;;;;215240;1293;24314;-61
2022/01/12 22:24:47;;;;;;;15.20;8.50;;;23.90;46.80;;;;;;215087;1293;22678;-57
2022/01/12 22:29:51;;;;;;;13.20;8.40;;;23.90;46.90;;;;;;215104;1293;25375;-56
2022/01/12 22:34:59;;;;;;;13.10;8.00;;;24.00;46.40;;;;;;214636;1296;24560;-59
2022/01/12 22:40:10;;;;;;;12.80;8.80;;;24.00;46.40;;;;;;215343;1293;24552;-60
2022/01/12 22:45:15;;;;;;;11.60;8.50;;;24.10;46.00;;;;;;215046;1293;25780;-60
2022/01/12 22:50:34;;;;;;;14.00;8.40;;;24.10;46.10;;;;;;214780;1293;24337;-61
2022/01/12 22:55:46;;;;;;;11.80;7.90;;;24.10;45.90;;;;;;214883;1293;24254;-57
2022/01/12 23:00:56;;;;;;;15.20;7.70;;;24.20;46.10;;;;;;215880;1293;22583;-56
2022/01/12 23:06:05;;;;;;;13.20;7.70;;;24.10;46.00;;;;;;215185;1293;26939;-57
2022/01/12 23:11:16;;;;;;;15.00;8.30;;;24.10;46.10;;;;;;215157;1293;25557;-56
2022/01/12 23:16:42;;;;;;;13.50;7.80;;;24.10;46.50;;;;;;214911;1294;22581;-58
2022/01/12 23:21:58;;;;;;;15.10;7.80;;;24.10;47.00;;;;;;215182;1294;22674;-57
2022/01/12 23:27:12;;;;;;;12.40;8.00;;;24.00;47.00;;;;;;215088;1292;23175;-56
2022/01/12 23:32:24;;;;;;;14.50;7.20;;;24.00;46.90;;;;;;215213;1293;22640;-56
2022/01/12 23:43:20;;;;;;;11.10;7.70;;;24.00;47.40;;;;;;215175;1293;25496;-58
2022/01/12 23:58:57;;;;;;;12.80;7.30;;;23.90;47.20;;;;;;214969;1296;24399;-56
